createdAt,value
2022-11-27T00:00:10.866Z,13.50
2022-11-27T00:05:14.328Z,12.97
2022-11-27T00:10:17.992Z,15.03
2022-11-27T00:15:22.854Z,14.60
2022-11-27T00:20:29.568Z,17.93
2022-11-27T00:25:33.364Z,15.37
2022-11-27T00:30:38.138Z,13.37
2022-11-27T00:35:41.418Z,12.47
2022-11-27T00:40:44.862Z,14.53
2022-11-27T00:45:51.560Z,14.00
2022-11-27T00:51:00.960Z,15.10
2022-11-27T00:56:04.624Z,13.87
2022-11-27T01:01:09.892Z,13.60
2022-11-27T01:06:13.800Z,13.90
2022-11-27T01:11:19.305Z,13.48
2022-11-27T01:16:26.347Z,12.53
2022-11-27T01:21:32.344Z,11.23
2022-11-27T01:26:35.893Z,13.87
2022-11-27T01:31:41.437Z,11.47
2022-11-27T01:36:45.386Z,12.63
2022-11-27T01:41:49.868Z,13.27
2022-11-27T01:46:57.062Z,13.98
2022-11-27T01:52:03.355Z,12.13
2022-11-27T01:57:09.645Z,13.47
2022-11-27T02:02:14.450Z,12.50
2022-11-27T02:07:17.854Z,12.73
2022-11-27T02:12:26.144Z,14.00
2022-11-27T02:17:37.810Z,12.17
2022-11-27T02:22:57.972Z,13.20
2022-11-27T02:28:15.728Z,12.77
2022-11-27T02:33:23.144Z,14.57
2022-11-27T02:38:31.716Z,12.07
2022-11-27T02:43:38.985Z,12.67
2022-11-27T02:48:48.153Z,10.97
2022-11-27T02:53:55.192Z,14.33
2022-11-27T02:59:02.964Z,12.10
2022-11-27T03:04:11.292Z,12.80
2022-11-27T03:09:19.403Z,13.67
2022-11-27T03:14:24.914Z,13.07
2022-11-27T03:19:38.668Z,11.93
2022-11-27T03:24:42.498Z,12.60
2022-11-27T03:29:51.279Z,12.35
2022-11-27T03:34:56.838Z,13.53
2022-11-27T03:40:00.185Z,11.93
2022-11-27T03:45:09.826Z,12.73
2022-11-27T03:50:34.887Z,10.97
2022-11-27T04:00:46.908Z,10.10
2022-11-27T04:05:51.637Z,11.43
2022-11-27T04:16:02.344Z,12.30
2022-11-27T04:21:07.483Z,9.43
2022-11-27T04:26:11.030Z,12.23
2022-11-27T04:31:14.613Z,11.77
2022-11-27T04:36:19.251Z,9.57
2022-11-27T04:41:22.656Z,13.60
2022-11-27T04:46:25.978Z,11.83
2022-11-27T04:51:30.664Z,10.43
2022-11-27T05:01:37.288Z,11.07
2022-11-27T05:06:42.091Z,10.73
2022-11-27T05:16:50.227Z,10.10
2022-11-27T05:21:55.646Z,8.43
2022-11-27T05:26:59.372Z,11.10
2022-11-27T05:32:02.851Z,10.60
2022-11-27T05:37:07.566Z,11.00
2022-11-27T05:47:13.925Z,10.93
2022-11-27T05:52:18.619Z,9.67
2022-11-27T05:57:22.165Z,14.00
2022-11-27T06:02:29.412Z,12.27
2022-11-27T06:07:34.502Z,12.73
2022-11-27T06:17:41.188Z,12.17
2022-11-27T06:22:45.981Z,14.50
2022-11-27T06:32:52.742Z,15.03
2022-11-27T06:37:57.453Z,12.73
2022-11-27T06:43:01.065Z,13.43
2022-11-27T06:48:04.511Z,12.73
2022-11-27T06:53:09.165Z,14.57
2022-11-27T06:58:12.485Z,13.02
2022-11-27T07:03:15.885Z,13.90
2022-11-27T07:08:20.807Z,12.95
2022-11-27T07:13:25.414Z,11.77
2022-11-27T07:18:28.704Z,10.90
2022-11-27T07:23:33.523Z,13.68
2022-11-27T07:33:39.990Z,11.00
2022-11-27T07:38:46.776Z,11.15
2022-11-27T07:43:50.541Z,9.35
2022-11-27T07:48:54.116Z,12.57
2022-11-27T07:53:58.903Z,10.55
2022-11-27T08:04:05.390Z,9.27
2022-11-27T08:09:10.054Z,10.95
2022-11-27T08:14:15.012Z,8.75
2022-11-27T08:19:18.187Z,9.52
2022-11-27T08:24:22.992Z,12.77
2022-11-27T08:29:31.185Z,10.43
2022-11-27T08:34:37.318Z,10.50
2022-11-27T08:39:41.944Z,10.63
2022-11-27T08:44:45.137Z,9.98
2022-11-27T08:49:48.550Z,9.48
2022-11-27T08:54:57.351Z,9.70
2022-11-27T09:00:01.216Z,10.27
2022-11-27T09:05:06.832Z,9.48
2022-11-27T09:10:12.125Z,11.10
2022-11-27T09:15:15.597Z,10.52
2022-11-27T09:20:19.650Z,10.80
2022-11-27T09:25:24.327Z,11.87
2022-11-27T09:30:27.536Z,10.68
2022-11-27T09:35:30.933Z,10.82
2022-11-27T09:40:36.265Z,11.13
2022-11-27T09:45:45.693Z,10.80
2022-11-27T09:50:53.437Z,10.07
2022-11-27T09:56:00.255Z,12.25
2022-11-27T10:01:10.755Z,11.40
2022-11-27T10:06:25.629Z,9.65
2022-11-27T10:11:34.209Z,11.77
2022-11-27T10:16:44.686Z,12.73
2022-11-27T10:21:53.757Z,12.02
2022-11-27T10:27:00.490Z,10.38
2022-11-27T10:32:26.743Z,10.82
2022-11-27T10:37:41.218Z,12.50
2022-11-27T10:42:51.042Z,10.25
2022-11-27T10:47:54.361Z,10.27
2022-11-27T10:53:01.573Z,11.00
2022-11-27T10:58:12.434Z,12.23
2022-11-27T11:03:19.252Z,10.45
2022-11-27T11:08:24.565Z,11.73
2022-11-27T11:13:31.004Z,12.38
2022-11-27T11:18:36.693Z,11.23
2022-11-27T11:23:42.435Z,14.57
2022-11-27T11:28:51.903Z,14.63
2022-11-27T11:33:59.953Z,11.77
2022-11-27T11:39:03.342Z,17.00
2022-11-27T11:44:21.453Z,14.48
2022-11-27T11:49:27.367Z,15.57
2022-11-27T11:54:44.127Z,15.10
2022-11-27T11:59:55.817Z,16.45
2022-11-27T12:05:28.204Z,13.60
2022-11-27T12:10:40.364Z,13.80
2022-11-27T12:15:51.626Z,13.25
2022-11-27T12:21:07.916Z,13.20
2022-11-27T12:26:22.601Z,15.63
2022-11-27T12:31:42.004Z,12.73
2022-11-27T12:37:04.141Z,14.23
2022-11-27T12:42:22.158Z,10.35
2022-11-27T12:47:34.952Z,11.82
2022-11-27T12:57:50.758Z,13.40
2022-11-27T13:03:04.154Z,10.38
2022-11-27T13:08:14.774Z,10.50
2022-11-27T13:13:24.578Z,10.52
2022-11-27T13:18:35.217Z,11.77
2022-11-27T13:23:38.900Z,12.15
2022-11-27T13:28:45.843Z,12.52
2022-11-27T13:33:52.388Z,12.20
2022-11-27T13:38:59.307Z,13.93
2022-11-27T13:44:04.880Z,13.55
2022-11-27T13:49:27.700Z,13.48
2022-11-27T13:54:31.362Z,13.35
2022-11-27T13:59:39.159Z,17.55
2022-11-27T14:04:56.104Z,15.38
2022-11-27T14:10:10.138Z,17.35
2022-11-27T14:15:23.981Z,17.42
2022-11-27T14:20:33.732Z,16.52
2022-11-27T14:25:37.546Z,15.82
2022-11-27T14:30:46.043Z,15.10
2022-11-27T14:35:52.446Z,13.60
2022-11-27T14:41:07.978Z,16.80
2022-11-27T14:46:16.587Z,13.38
2022-11-27T14:51:24.543Z,12.93
2022-11-27T14:56:32.686Z,13.85
2022-11-27T15:01:37.444Z,16.60
2022-11-27T15:11:56.819Z,14.75
2022-11-27T15:17:00.899Z,17.70
2022-11-27T15:22:06.668Z,14.83
2022-11-27T15:27:19.110Z,14.80
2022-11-27T15:32:25.586Z,16.27
2022-11-27T15:37:34.686Z,12.70
2022-11-27T15:42:38.550Z,16.95
2022-11-27T15:47:42.747Z,13.57
2022-11-27T15:52:48.835Z,14.93
2022-11-27T15:57:55.666Z,14.98
2022-11-27T16:02:59.445Z,13.93
2022-11-27T16:08:05.938Z,15.10
2022-11-27T16:13:09.992Z,17.33
2022-11-27T16:18:13.714Z,16.80
2022-11-27T16:23:18.519Z,16.95
2022-11-27T16:33:27.243Z,16.10
2022-11-27T16:38:34.351Z,14.60
2022-11-27T16:43:42.170Z,13.98
2022-11-27T16:48:47.010Z,12.65
2022-11-27T16:59:01.156Z,13.32
2022-11-27T17:04:09.323Z,15.45
2022-11-27T17:09:17.117Z,14.23
2022-11-27T17:14:23.183Z,15.50
2022-11-27T17:19:30.272Z,14.38
2022-11-27T17:24:36.445Z,13.55
2022-11-27T17:29:41.157Z,11.75
2022-11-27T17:34:45.603Z,13.23
2022-11-27T17:39:51.033Z,16.20
2022-11-27T17:44:57.790Z,14.10
2022-11-27T17:50:04.673Z,14.30
2022-11-27T17:55:13.089Z,16.02
2022-11-27T18:00:18.904Z,15.25
2022-11-27T18:05:24.055Z,16.30
2022-11-27T18:10:31.507Z,15.32
2022-11-27T18:15:35.896Z,16.00
2022-11-27T18:20:39.400Z,16.30
2022-11-27T18:25:48.841Z,14.05
2022-11-27T18:30:53.211Z,15.65
2022-11-27T18:36:00.113Z,17.52
2022-11-27T18:41:10.207Z,16.83
2022-11-27T18:46:15.325Z,19.58
2022-11-27T18:51:21.010Z,20.13
2022-11-27T18:56:35.553Z,17.67
2022-11-27T19:01:42.232Z,20.52
2022-11-27T19:06:46.655Z,19.55
2022-11-27T19:11:52.037Z,21.87
2022-11-27T19:16:59.080Z,23.40
2022-11-27T19:22:05.306Z,25.00
2022-11-27T19:27:10.184Z,20.55
2022-11-27T19:32:13.641Z,23.20
2022-11-27T19:37:33.154Z,23.23
2022-11-27T19:42:38.705Z,23.95
2022-11-27T19:52:45.513Z,22.63
2022-11-27T19:57:50.728Z,21.48
2022-11-27T20:02:54.112Z,22.83
2022-11-27T20:07:57.943Z,24.55
2022-11-27T20:13:03.026Z,21.60
2022-11-27T20:18:06.587Z,24.58
2022-11-27T20:23:09.880Z,22.75
2022-11-27T20:28:15.147Z,21.45
2022-11-27T20:33:19.992Z,24.65
2022-11-27T20:43:27.746Z,22.83
2022-11-27T20:53:34.585Z,21.10
2022-11-27T20:58:40.577Z,26.35
2022-11-27T21:03:44.053Z,22.65
2022-11-27T21:08:47.538Z,23.70
2022-11-27T21:13:52.733Z,23.08
2022-11-27T21:18:56.776Z,25.23
2022-11-27T21:24:00.702Z,27.08
2022-11-27T21:29:05.780Z,26.07
2022-11-27T21:34:10.411Z,24.90
2022-11-27T21:39:20.296Z,24.48
2022-11-27T21:44:26.109Z,25.08
2022-11-27T21:49:29.477Z,24.73
2022-11-27T21:54:32.830Z,24.65
2022-11-27T21:59:37.546Z,24.40
2022-11-27T22:09:44.392Z,27.15
2022-11-27T22:14:50.780Z,22.80
2022-11-27T22:19:54.204Z,22.52
2022-11-27T22:24:57.697Z,28.08
2022-11-27T22:30:02.447Z,22.80
2022-11-27T22:35:07.553Z,24.67
2022-11-27T22:40:11.519Z,25.47
2022-11-27T22:45:16.646Z,25.00
2022-11-27T22:55:23.044Z,23.08
2022-11-27T23:00:27.673Z,23.67
2022-11-27T23:05:30.876Z,20.02
2022-11-27T23:10:34.382Z,21.13
2022-11-27T23:15:39.168Z,22.40
2022-11-27T23:25:46.530Z,26.17
2022-11-27T23:31:08.809Z,24.40
2022-11-27T23:36:14.530Z,20.92
2022-11-27T23:41:19.188Z,21.13
2022-11-27T23:46:26.485Z,27.77
2022-11-27T23:51:32.899Z,25.02
2022-11-27T23:56:36.512Z,23.25
